createdAt,value
2023-05-23T00:01:09.825Z,4.22
2023-05-23T00:05:20.078Z,3.67
2023-05-23T00:07:24.623Z,3.97
2023-05-23T00:09:28.785Z,4.10
2023-05-23T00:11:31.177Z,3.55
2023-05-23T00:13:35.852Z,3.85
2023-05-23T00:15:42.263Z,4.05
2023-05-23T00:17:44.792Z,3.97
2023-05-23T00:19:46.333Z,4.20
2023-05-23T00:22:06.384Z,4.28
2023-05-23T00:24:10.810Z,4.13
2023-05-23T00:26:15.064Z,3.78
2023-05-23T00:28:19.601Z,3.88
2023-05-23T00:30:23.765Z,3.72
2023-05-23T00:32:43.864Z,3.47
2023-05-23T00:34:48.487Z,3.35
2023-05-23T00:36:54.187Z,4.15
2023-05-23T00:38:55.808Z,3.67
2023-05-23T00:40:57.269Z,3.72
2023-05-23T00:45:05.935Z,3.53
2023-05-23T00:47:11.193Z,4.05
2023-05-23T00:49:31.019Z,4.20
2023-05-23T00:53:36.717Z,3.92
2023-05-23T00:55:41.290Z,3.55
2023-05-23T00:57:44.413Z,3.80
2023-05-23T00:59:48.881Z,4.25
2023-05-23T01:01:54.787Z,4.38
2023-05-23T01:03:59.213Z,3.90
2023-05-23T01:06:03.893Z,5.03
2023-05-23T01:08:08.483Z,3.97
2023-05-23T01:10:11.183Z,3.65
2023-05-23T01:12:24.480Z,4.18
2023-05-23T01:14:47.932Z,4.00
2023-05-23T01:17:03.257Z,4.63
2023-05-23T01:19:30.219Z,3.53
2023-05-23T01:21:44.299Z,4.43
2023-05-23T01:24:13.056Z,4.73
2023-05-23T01:26:43.113Z,4.20
2023-05-23T01:29:00.419Z,4.07
2023-05-23T01:31:12.357Z,4.15
2023-05-23T01:33:25.830Z,4.50
2023-05-23T01:35:54.393Z,4.47
2023-05-23T01:38:08.212Z,5.00
2023-05-23T01:40:22.241Z,6.15
2023-05-23T01:42:33.706Z,4.05
2023-05-23T01:45:03.682Z,5.13
2023-05-23T01:47:10.202Z,4.72
2023-05-23T01:49:15.005Z,4.47
2023-05-23T01:51:19.367Z,4.38
2023-05-23T01:53:22.404Z,4.20
2023-05-23T01:55:26.547Z,4.25
2023-05-23T01:57:29.762Z,4.90
2023-05-23T01:59:33.983Z,4.50
2023-05-23T02:01:54.017Z,4.90
2023-05-23T02:03:58.047Z,5.03
2023-05-23T02:05:59.692Z,5.10
2023-05-23T02:08:01.365Z,5.35
2023-05-23T02:10:09.145Z,4.50
2023-05-23T02:12:11.861Z,4.80
2023-05-23T02:14:13.331Z,4.97
2023-05-23T02:16:14.932Z,5.78
2023-05-23T02:20:38.928Z,4.55
2023-05-23T02:24:44.430Z,5.03
2023-05-23T02:26:45.943Z,5.20
2023-05-23T02:28:50.079Z,5.20
2023-05-23T02:32:58.216Z,5.43
2023-05-23T02:35:02.479Z,5.35
2023-05-23T02:37:06.930Z,4.57
2023-05-23T02:39:11.305Z,4.57
2023-05-23T02:41:12.837Z,5.63
2023-05-23T02:43:14.458Z,5.32
2023-05-23T02:45:16.042Z,5.40
2023-05-23T02:47:20.797Z,4.38
2023-05-23T02:49:22.323Z,5.25
2023-05-23T02:51:26.846Z,5.35
2023-05-23T02:53:31.019Z,4.30
2023-05-23T02:55:32.618Z,4.88
2023-05-23T02:57:34.058Z,5.13
2023-05-23T03:01:42.310Z,5.60
2023-05-23T03:03:46.845Z,5.03
2023-05-23T03:05:51.635Z,5.30
2023-05-23T03:07:54.540Z,5.10
2023-05-23T03:10:01.785Z,5.63
2023-05-23T03:14:07.473Z,5.03
2023-05-23T03:16:08.991Z,5.38
2023-05-23T03:20:17.368Z,5.40
2023-05-23T03:22:18.900Z,5.88
2023-05-23T03:24:20.408Z,5.60
2023-05-23T03:26:40.913Z,5.10
2023-05-23T03:28:45.106Z,5.07
2023-05-23T03:30:46.576Z,4.80
2023-05-23T03:32:48.176Z,6.38
2023-05-23T03:34:52.673Z,4.32
2023-05-23T03:37:12.884Z,5.28
2023-05-23T03:39:14.497Z,6.50
2023-05-23T03:41:15.962Z,5.25
2023-05-23T03:43:17.855Z,6.15
2023-05-23T03:45:19.344Z,5.93
2023-05-23T03:47:20.786Z,6.28
2023-05-23T03:49:27.886Z,5.50
2023-05-23T03:51:35.300Z,6.20
2023-05-23T03:53:55.312Z,6.00
2023-05-23T03:58:03.357Z,5.93
2023-05-23T04:02:16.274Z,5.95
2023-05-23T04:06:26.307Z,5.72
2023-05-23T04:08:33.974Z,6.45
2023-05-23T04:10:38.788Z,7.20
2023-05-23T04:13:05.381Z,5.85
2023-05-23T04:15:08.540Z,4.80
2023-05-23T04:17:40.627Z,5.72
2023-05-23T04:19:50.518Z,6.10
2023-05-23T04:22:05.410Z,6.13
2023-05-23T04:24:19.055Z,6.57
2023-05-23T04:26:32.540Z,6.68
2023-05-23T04:28:41.650Z,6.00
2023-05-23T04:30:57.199Z,5.80
2023-05-23T04:33:04.025Z,6.45
2023-05-23T04:35:16.557Z,6.18
2023-05-23T04:37:27.821Z,5.95
2023-05-23T04:39:39.622Z,5.32
2023-05-23T04:41:48.213Z,5.32
2023-05-23T04:44:03.518Z,5.90
2023-05-23T04:46:16.504Z,5.40
2023-05-23T04:48:27.965Z,5.47
2023-05-23T04:50:44.122Z,6.30
2023-05-23T04:52:50.632Z,5.82
2023-05-23T04:54:56.199Z,5.95
2023-05-23T04:56:57.864Z,5.25
2023-05-23T04:58:59.398Z,5.43
2023-05-23T05:01:20.631Z,5.95
2023-05-23T05:03:26.499Z,6.85
2023-05-23T05:05:31.089Z,5.97
2023-05-23T05:07:32.680Z,6.28
2023-05-23T05:09:34.154Z,6.30
2023-05-23T05:13:39.525Z,6.03
2023-05-23T05:15:59.679Z,5.82
2023-05-23T05:20:08.795Z,5.95
2023-05-23T05:22:13.298Z,6.32
2023-05-23T05:24:15.840Z,5.82
2023-05-23T05:26:20.096Z,6.22
2023-05-23T05:28:21.903Z,5.80
2023-05-23T05:30:26.124Z,5.50
2023-05-23T05:32:29.167Z,6.68
2023-05-23T05:34:30.676Z,5.80
2023-05-23T05:36:32.617Z,6.03
2023-05-23T05:38:37.077Z,5.38
2023-05-23T05:40:38.640Z,5.50
2023-05-23T05:42:40.508Z,4.90
2023-05-23T05:44:42.133Z,5.32
2023-05-23T05:46:43.820Z,5.28
2023-05-23T05:48:48.139Z,5.57
2023-05-23T05:50:52.589Z,4.97
2023-05-23T05:52:56.811Z,4.18
2023-05-23T05:55:16.811Z,5.20
2023-05-23T05:57:21.486Z,4.20
2023-05-23T05:59:25.854Z,4.55
2023-05-23T06:01:27.303Z,5.55
2023-05-23T06:05:33.320Z,4.03
2023-05-23T06:07:40.702Z,4.25
2023-05-23T06:10:01.037Z,4.32
2023-05-23T06:12:02.991Z,4.20
2023-05-23T06:14:22.958Z,3.67
2023-05-23T06:16:24.860Z,3.97
2023-05-23T06:18:26.420Z,4.00
2023-05-23T06:20:28.772Z,4.03
2023-05-23T06:22:30.335Z,4.43
2023-05-23T06:24:34.602Z,3.92
2023-05-23T06:26:38.989Z,3.78
2023-05-23T06:28:40.569Z,3.22
2023-05-23T06:30:45.368Z,3.75
2023-05-23T06:32:49.878Z,3.40
2023-05-23T06:34:54.232Z,3.17
2023-05-23T06:36:55.840Z,3.33
2023-05-23T06:38:57.274Z,3.67
2023-05-23T06:41:02.400Z,3.15
2023-05-23T06:43:06.927Z,3.53
2023-05-23T06:45:08.764Z,2.40
2023-05-23T06:47:10.403Z,2.72
2023-05-23T06:49:15.088Z,3.05
2023-05-23T06:51:20.136Z,3.20
2023-05-23T06:53:24.599Z,3.42
2023-05-23T06:55:29.110Z,2.60
2023-05-23T06:57:33.407Z,2.50
2023-05-23T06:59:37.842Z,2.63
2023-05-23T07:01:39.726Z,2.65
2023-05-23T07:03:45.844Z,2.75
2023-05-23T07:05:47.369Z,2.92
2023-05-23T07:08:07.798Z,2.75
2023-05-23T07:10:11.885Z,2.35
2023-05-23T07:12:13.499Z,2.40
2023-05-23T07:14:15.469Z,2.78
2023-05-23T07:16:17.304Z,2.65
2023-05-23T07:18:21.932Z,2.90
2023-05-23T07:20:26.798Z,3.22
2023-05-23T07:22:28.713Z,3.00
2023-05-23T07:24:42.571Z,2.47
2023-05-23T07:29:03.683Z,2.50
2023-05-23T07:31:16.424Z,2.97
2023-05-23T07:33:33.832Z,2.53
2023-05-23T07:35:49.640Z,2.42
2023-05-23T07:38:07.420Z,2.40
2023-05-23T07:40:19.454Z,2.08
2023-05-23T07:42:33.502Z,2.40
2023-05-23T07:44:39.246Z,2.35
2023-05-23T07:46:42.924Z,2.38
2023-05-23T07:49:05.109Z,2.35
2023-05-23T07:51:08.422Z,2.70
2023-05-23T07:53:15.232Z,1.98
2023-05-23T07:55:26.058Z,2.10
2023-05-23T07:57:30.327Z,2.50
2023-05-23T07:59:37.437Z,2.35
2023-05-23T08:01:43.098Z,2.50
2023-05-23T08:03:44.667Z,2.42
2023-05-23T08:05:47.029Z,2.50
2023-05-23T08:07:48.501Z,2.27
2023-05-23T08:09:50.181Z,2.00
2023-05-23T08:11:51.663Z,2.03
2023-05-23T08:13:56.426Z,2.13
2023-05-23T08:16:00.757Z,2.60
2023-05-23T08:18:02.309Z,2.22
2023-05-23T08:20:08.971Z,2.05
2023-05-23T08:22:29.151Z,2.08
2023-05-23T08:24:30.923Z,2.22
2023-05-23T08:26:44.269Z,2.13
2023-05-23T08:28:48.613Z,2.05
2023-05-23T08:30:50.298Z,2.00
2023-05-23T08:32:55.565Z,2.20
2023-05-23T08:35:00.201Z,2.20
2023-05-23T08:37:07.621Z,2.15
2023-05-23T08:39:14.141Z,2.58
2023-05-23T08:41:22.661Z,2.10
2023-05-23T08:43:42.943Z,2.05
2023-05-23T08:45:48.261Z,1.95
2023-05-23T08:47:54.634Z,2.10
2023-05-23T08:49:59.728Z,2.10
2023-05-23T08:52:03.954Z,2.15
2023-05-23T08:54:09.294Z,2.35
2023-05-23T08:56:11.223Z,2.47
2023-05-23T08:58:15.796Z,2.17
2023-05-23T09:00:20.176Z,1.98
2023-05-23T09:02:24.819Z,1.88
2023-05-23T09:04:26.549Z,2.45
2023-05-23T09:06:46.565Z,2.08
2023-05-23T09:09:07.298Z,2.22
2023-05-23T09:11:27.422Z,1.60
2023-05-23T09:13:32.192Z,1.65
2023-05-23T09:15:36.662Z,1.88
2023-05-23T09:17:41.250Z,2.00
2023-05-23T09:19:43.224Z,1.80
2023-05-23T09:21:47.965Z,1.55
2023-05-23T09:23:50.077Z,1.40
2023-05-23T09:25:54.498Z,1.95
2023-05-23T09:28:00.649Z,1.85
2023-05-23T09:30:20.768Z,1.85
2023-05-23T09:32:22.633Z,2.00
2023-05-23T09:34:28.459Z,1.80
2023-05-23T09:36:35.522Z,1.67
2023-05-23T09:38:55.613Z,1.90
2023-05-23T09:40:59.910Z,1.60
2023-05-23T09:43:21.972Z,1.85
2023-05-23T09:45:29.461Z,1.83
2023-05-23T09:47:31.173Z,1.73
2023-05-23T09:49:32.712Z,1.58
2023-05-23T09:51:34.397Z,2.53
2023-05-23T09:53:55.327Z,1.73
2023-05-23T09:56:00.820Z,1.90
2023-05-23T09:58:05.623Z,1.67
2023-05-23T10:00:17.045Z,1.58
2023-05-23T10:02:39.951Z,1.63
2023-05-23T10:04:43.044Z,1.85
2023-05-23T10:07:18.513Z,2.05
2023-05-23T10:09:21.958Z,2.13
2023-05-23T10:15:31.145Z,1.73
2023-05-23T10:17:44.705Z,2.08
2023-05-23T10:20:15.954Z,1.90
2023-05-23T10:24:40.562Z,2.22
2023-05-23T10:26:45.164Z,1.80
2023-05-23T10:28:47.385Z,2.00
2023-05-23T10:30:49.069Z,1.75
2023-05-23T10:32:57.195Z,2.30
2023-05-23T10:35:21.844Z,2.33
2023-05-23T10:37:26.255Z,1.73
2023-05-23T10:39:33.724Z,1.90
2023-05-23T10:41:56.420Z,2.20
2023-05-23T10:44:21.714Z,1.35
2023-05-23T10:46:53.048Z,1.58
2023-05-23T10:49:15.302Z,2.25
2023-05-23T10:51:23.971Z,2.20
2023-05-23T10:53:31.135Z,1.65
2023-05-23T10:55:37.824Z,2.38
2023-05-23T10:57:45.145Z,1.67
2023-05-23T10:59:52.987Z,1.70
2023-05-23T11:02:01.770Z,2.53
2023-05-23T11:04:08.444Z,2.05
2023-05-23T11:06:34.513Z,2.03
2023-05-23T11:08:48.477Z,1.90
2023-05-23T11:11:02.820Z,1.50
2023-05-23T11:13:10.214Z,1.75
2023-05-23T11:15:23.232Z,2.10
2023-05-23T11:17:32.226Z,1.77
2023-05-23T11:19:59.661Z,1.80
2023-05-23T11:22:02.257Z,2.33
2023-05-23T11:24:06.648Z,1.95
2023-05-23T11:26:28.085Z,1.33
2023-05-23T11:28:29.606Z,1.65
2023-05-23T11:30:31.992Z,1.50
2023-05-23T11:32:33.842Z,2.38
2023-05-23T11:34:39.009Z,2.72
2023-05-23T11:36:41.397Z,1.60
2023-05-23T11:38:45.919Z,2.20
2023-05-23T11:40:48.162Z,2.08
2023-05-23T11:42:54.318Z,1.85
2023-05-23T11:45:03.370Z,2.92
2023-05-23T11:47:10.847Z,1.45
2023-05-23T11:49:12.768Z,2.10
2023-05-23T11:51:17.334Z,2.08
2023-05-23T11:53:37.346Z,1.52
2023-05-23T11:55:48.334Z,1.65
2023-05-23T11:57:51.550Z,1.63
2023-05-23T11:59:56.238Z,1.70
2023-05-23T12:02:16.660Z,2.15
2023-05-23T12:04:21.325Z,2.38
2023-05-23T12:06:42.001Z,1.92
2023-05-23T12:08:47.536Z,1.70
2023-05-23T12:10:50.028Z,1.95
2023-05-23T12:13:09.986Z,1.52
2023-05-23T12:15:30.321Z,1.42
2023-05-23T12:17:34.764Z,1.85
2023-05-23T12:19:39.470Z,2.17
2023-05-23T12:21:50.266Z,2.38
2023-05-23T12:23:54.655Z,1.70
2023-05-23T12:25:56.812Z,2.05
2023-05-23T12:28:03.720Z,1.52
2023-05-23T12:30:09.526Z,1.95
2023-05-23T12:34:12.989Z,1.65
2023-05-23T12:36:37.637Z,2.25
2023-05-23T12:38:46.446Z,2.50
2023-05-23T12:40:48.008Z,2.25
2023-05-23T12:42:51.360Z,2.50
2023-05-23T12:45:13.776Z,1.88
2023-05-23T12:47:34.069Z,2.30
2023-05-23T12:49:38.829Z,1.98
2023-05-23T12:51:40.885Z,2.00
2023-05-23T12:53:45.563Z,1.83
2023-05-23T12:55:47.133Z,1.75
2023-05-23T12:57:51.377Z,1.98
2023-05-23T12:59:55.460Z,2.13
2023-05-23T13:02:00.507Z,1.98
2023-05-23T13:04:04.605Z,1.70
2023-05-23T13:06:06.806Z,1.60
2023-05-23T13:08:12.392Z,1.30
2023-05-23T13:10:16.940Z,1.88
2023-05-23T13:12:21.413Z,1.95
2023-05-23T13:14:22.933Z,1.95
2023-05-23T13:16:24.463Z,1.90
2023-05-23T13:18:29.250Z,1.85
2023-05-23T13:20:34.349Z,2.15
2023-05-23T13:22:40.570Z,2.15
2023-05-23T13:24:45.175Z,2.55
2023-05-23T13:26:49.487Z,1.55
2023-05-23T13:28:53.782Z,2.17
2023-05-23T13:30:55.496Z,1.90
2023-05-23T13:33:00.070Z,2.65
2023-05-23T13:35:04.501Z,1.88
2023-05-23T13:37:06.095Z,1.70
2023-05-23T13:39:10.500Z,2.35
2023-05-23T13:41:15.373Z,2.03
2023-05-23T13:43:16.849Z,2.08
2023-05-23T13:45:23.216Z,1.33
2023-05-23T13:47:27.867Z,1.60
2023-05-23T13:49:33.557Z,1.65
2023-05-23T13:51:37.340Z,1.88
2023-05-23T13:53:44.911Z,1.80
2023-05-23T13:55:46.621Z,2.72
2023-05-23T13:57:49.314Z,1.75
2023-05-23T13:59:53.731Z,1.67
2023-05-23T14:01:55.673Z,1.77
2023-05-23T14:03:57.167Z,1.90
2023-05-23T14:05:58.646Z,1.90
2023-05-23T14:08:02.885Z,1.80
2023-05-23T14:10:23.474Z,1.52
2023-05-23T14:12:26.828Z,1.67
2023-05-23T14:14:34.149Z,1.88
2023-05-23T14:16:41.478Z,1.55
2023-05-23T14:18:43.078Z,1.95
2023-05-23T14:20:45.977Z,1.35
2023-05-23T14:22:47.857Z,1.92
2023-05-23T14:24:51.977Z,1.40
2023-05-23T14:26:57.980Z,1.75
2023-05-23T14:28:59.516Z,1.88
2023-05-23T14:31:03.769Z,1.77
2023-05-23T14:33:07.337Z,2.05
2023-05-23T14:35:16.870Z,1.75
2023-05-23T14:37:21.719Z,1.65
2023-05-23T14:39:23.294Z,1.98
2023-05-23T14:41:24.783Z,1.70
2023-05-23T14:43:28.837Z,1.95
2023-05-23T14:45:33.429Z,1.92
2023-05-23T14:47:53.845Z,1.50
2023-05-23T14:49:56.617Z,1.75
2023-05-23T14:52:00.459Z,1.85
2023-05-23T14:54:02.558Z,2.33
2023-05-23T14:56:06.964Z,2.47
2023-05-23T14:58:08.501Z,1.45
2023-05-23T15:00:11.693Z,1.60
2023-05-23T15:02:13.455Z,1.75
2023-05-23T15:04:17.422Z,1.88
2023-05-23T15:06:21.928Z,1.92
2023-05-23T15:08:26.249Z,2.13
2023-05-23T15:10:27.738Z,1.65
2023-05-23T15:12:29.388Z,2.17
2023-05-23T15:14:32.166Z,2.05
2023-05-23T15:16:35.117Z,1.63
2023-05-23T15:18:55.303Z,2.20
2023-05-23T15:20:56.814Z,1.70
2023-05-23T15:23:01.092Z,2.25
2023-05-23T15:25:05.837Z,2.17
2023-05-23T15:27:20.339Z,2.00
2023-05-23T15:29:41.495Z,2.00
2023-05-23T15:31:42.986Z,2.00
2023-05-23T15:33:48.008Z,2.13
2023-05-23T15:35:49.464Z,1.98
2023-05-23T15:37:51.052Z,1.75
2023-05-23T15:39:55.420Z,2.40
2023-05-23T15:41:59.598Z,1.80
2023-05-23T15:44:01.080Z,2.33
2023-05-23T15:46:05.542Z,1.98
2023-05-23T15:48:13.252Z,2.22
2023-05-23T15:50:33.401Z,2.00
2023-05-23T15:52:37.748Z,2.33
2023-05-23T15:54:42.082Z,2.25
2023-05-23T15:56:46.677Z,2.10
2023-05-23T15:58:48.119Z,2.42
2023-05-23T16:00:52.154Z,1.90
2023-05-23T16:02:53.681Z,2.17
2023-05-23T16:04:55.316Z,1.70
2023-05-23T16:06:56.860Z,2.65
2023-05-23T16:08:58.588Z,2.65
2023-05-23T16:11:00.246Z,1.70
2023-05-23T16:13:04.655Z,2.38
2023-05-23T16:15:06.346Z,1.92
2023-05-23T16:17:11.697Z,1.70
2023-05-23T16:19:16.180Z,2.05
2023-05-23T16:21:21.017Z,1.77
2023-05-23T16:23:25.873Z,2.03
2023-05-23T16:25:30.476Z,1.70
2023-05-23T16:27:36.182Z,2.47
2023-05-23T16:29:37.781Z,1.92
2023-05-23T16:31:42.151Z,2.30
2023-05-23T16:33:46.764Z,1.80
2023-05-23T16:35:48.278Z,2.00
2023-05-23T16:38:10.659Z,1.98
2023-05-23T16:40:27.890Z,2.15
2023-05-23T16:42:31.750Z,1.60
2023-05-23T16:44:35.622Z,1.65
2023-05-23T16:46:42.874Z,2.00
2023-05-23T16:48:50.128Z,1.75
2023-05-23T16:50:57.117Z,1.83
2023-05-23T16:53:03.564Z,1.85
2023-05-23T16:55:10.528Z,1.48
2023-05-23T16:57:17.408Z,1.65
2023-05-23T16:59:23.658Z,2.20
2023-05-23T17:01:27.389Z,2.33
2023-05-23T17:03:49.476Z,1.95
2023-05-23T17:05:56.743Z,2.20
2023-05-23T17:08:04.372Z,2.78
2023-05-23T17:10:08.455Z,1.65
2023-05-23T17:12:13.500Z,1.60
2023-05-23T17:14:19.846Z,2.15
2023-05-23T17:16:26.452Z,2.20
2023-05-23T17:18:33.249Z,2.03
2023-05-23T17:20:43.018Z,1.85
2023-05-23T17:24:51.421Z,1.70
2023-05-23T17:26:58.634Z,2.95
2023-05-23T17:29:02.455Z,2.22
2023-05-23T17:31:22.116Z,1.83
2023-05-23T17:33:28.054Z,1.38
2023-05-23T17:35:31.794Z,1.95
2023-05-23T17:37:38.960Z,2.13
2023-05-23T17:39:43.135Z,2.33
2023-05-23T17:41:49.952Z,2.63
2023-05-23T17:43:56.570Z,1.98
2023-05-23T17:46:02.933Z,2.17
2023-05-23T17:50:08.922Z,1.83
2023-05-23T17:52:14.725Z,1.75
2023-05-23T17:54:16.485Z,2.00
2023-05-23T17:56:24.957Z,1.75
2023-05-23T17:58:26.725Z,1.73
2023-05-23T18:00:28.189Z,1.65
2023-05-23T18:02:29.802Z,2.05
2023-05-23T18:04:34.437Z,1.90
2023-05-23T18:06:38.728Z,2.35
2023-05-23T18:08:40.870Z,2.50
2023-05-23T18:10:47.682Z,1.58
2023-05-23T18:12:52.086Z,1.85
2023-05-23T18:15:13.323Z,1.83
2023-05-23T18:17:14.939Z,3.40
2023-05-23T18:19:19.244Z,2.15
2023-05-23T18:21:23.854Z,2.10
2023-05-23T18:23:28.425Z,2.00
2023-05-23T18:25:32.814Z,1.70
2023-05-23T18:27:34.431Z,2.50
2023-05-23T18:29:38.847Z,1.88
2023-05-23T18:31:40.624Z,2.85
2023-05-23T18:33:42.158Z,2.03
2023-05-23T18:35:44.096Z,1.88
2023-05-23T18:37:46.531Z,3.10
2023-05-23T18:39:48.193Z,2.22
2023-05-23T18:41:52.565Z,1.95
2023-05-23T18:43:54.211Z,2.63
2023-05-23T18:45:58.218Z,2.08
2023-05-23T18:48:18.250Z,2.25
2023-05-23T18:50:22.287Z,2.05
2023-05-23T18:52:23.723Z,2.42
2023-05-23T18:54:27.828Z,2.20
2023-05-23T18:56:32.110Z,2.58
2023-05-23T18:58:37.100Z,2.15
2023-05-23T19:00:38.704Z,1.73
2023-05-23T19:02:45.229Z,2.45
2023-05-23T19:04:46.956Z,2.38
2023-05-23T19:06:51.601Z,2.38
2023-05-23T19:08:53.141Z,1.98
2023-05-23T19:10:54.656Z,1.75
2023-05-23T19:12:59.033Z,2.33
2023-05-23T19:15:01.191Z,2.28
2023-05-23T19:17:06.291Z,2.88
2023-05-23T19:19:11.379Z,1.83
2023-05-23T19:21:15.992Z,2.13
2023-05-23T19:23:20.808Z,2.25
2023-05-23T19:25:42.358Z,2.75
2023-05-23T19:27:43.855Z,2.40
2023-05-23T19:29:48.237Z,3.40
2023-05-23T19:31:52.887Z,3.17
2023-05-23T19:33:54.481Z,2.15
2023-05-23T19:35:56.060Z,1.92
2023-05-23T19:37:57.668Z,2.25
2023-05-23T19:39:59.185Z,2.10
2023-05-23T19:42:20.097Z,1.95
2023-05-23T19:44:28.861Z,2.40
2023-05-23T19:46:34.444Z,2.10
2023-05-23T19:48:57.575Z,2.55
2023-05-23T19:51:00.312Z,2.00
2023-05-23T19:53:02.280Z,2.35
2023-05-23T19:55:06.241Z,2.05
2023-05-23T19:57:14.342Z,2.45
2023-05-23T19:59:18.391Z,2.17
2023-05-23T20:01:22.709Z,2.33
2023-05-23T20:03:28.493Z,2.67
2023-05-23T20:05:34.895Z,2.33
2023-05-23T20:07:38.953Z,2.50
2023-05-23T20:09:43.033Z,2.60
2023-05-23T20:11:49.795Z,2.20
2023-05-23T20:13:59.550Z,2.30
2023-05-23T20:16:02.728Z,2.25
2023-05-23T20:18:06.355Z,2.47
2023-05-23T20:20:14.427Z,3.25
2023-05-23T20:22:23.043Z,2.03
2023-05-23T20:24:27.258Z,2.17
2023-05-23T20:26:29.286Z,2.55
2023-05-23T20:28:33.763Z,2.20
2023-05-23T20:30:38.077Z,2.58
2023-05-23T20:32:45.416Z,2.63
2023-05-23T20:34:49.896Z,2.30
2023-05-23T20:36:51.509Z,2.00
2023-05-23T20:38:53.611Z,2.08
2023-05-23T20:41:01.584Z,2.25
2023-05-23T20:43:05.247Z,2.97
2023-05-23T20:45:07.161Z,2.30
2023-05-23T20:47:11.510Z,2.22
2023-05-23T20:49:18.804Z,2.25
2023-05-23T20:51:21.095Z,1.90
2023-05-23T20:53:23.169Z,2.55
2023-05-23T20:55:27.084Z,2.35
2023-05-23T20:57:33.570Z,2.33
2023-05-23T20:59:35.246Z,4.00
2023-05-23T21:01:42.646Z,2.95
2023-05-23T21:03:44.438Z,3.17
2023-05-23T21:05:48.681Z,3.35
2023-05-23T21:07:52.750Z,2.38
2023-05-23T21:09:54.237Z,2.55
2023-05-23T21:11:58.904Z,3.65
2023-05-23T21:14:00.827Z,2.38
2023-05-23T21:16:06.232Z,2.20
2023-05-23T21:18:10.840Z,2.72
2023-05-23T21:20:16.274Z,2.90
2023-05-23T21:22:20.875Z,2.33
2023-05-23T21:24:25.441Z,2.83
2023-05-23T21:26:29.843Z,2.50
2023-05-23T21:28:31.376Z,2.30
2023-05-23T21:30:39.411Z,2.65
2023-05-23T21:32:59.976Z,2.53
2023-05-23T21:35:20.016Z,2.40
2023-05-23T21:37:21.492Z,2.90
2023-05-23T21:41:33.463Z,2.30
2023-05-23T21:43:34.938Z,2.70
2023-05-23T21:45:36.440Z,2.90
2023-05-23T21:47:40.821Z,3.13
2023-05-23T21:49:42.811Z,2.35
2023-05-23T21:51:47.105Z,2.60
2023-05-23T21:53:48.760Z,2.47
2023-05-23T21:55:50.338Z,2.10
2023-05-23T21:57:51.885Z,2.50
2023-05-23T21:59:53.403Z,2.55
2023-05-23T22:01:57.862Z,2.30
2023-05-23T22:04:02.538Z,2.33
2023-05-23T22:06:07.148Z,2.40
2023-05-23T22:08:11.622Z,2.30
2023-05-23T22:10:13.542Z,2.85
2023-05-23T22:12:15.029Z,1.95
2023-05-23T22:14:19.226Z,2.22
2023-05-23T22:16:23.555Z,2.60
2023-05-23T22:18:27.692Z,2.72
2023-05-23T22:20:30.370Z,10.15
2023-05-23T22:22:31.983Z,6.15
2023-05-23T22:24:36.421Z,3.30
2023-05-23T22:26:40.916Z,2.30
2023-05-23T22:28:42.381Z,2.22
2023-05-23T22:30:46.698Z,2.47
2023-05-23T22:32:50.943Z,2.00
2023-05-23T22:34:52.460Z,2.50
2023-05-23T22:39:05.498Z,2.78
2023-05-23T22:41:27.809Z,2.10
2023-05-23T22:43:32.087Z,2.38
2023-05-23T22:45:42.673Z,3.60
2023-05-23T22:47:48.277Z,2.38
2023-05-23T22:49:56.546Z,2.38
2023-05-23T22:52:01.202Z,2.75
2023-05-23T22:54:18.785Z,3.10
2023-05-23T22:56:35.071Z,2.33
2023-05-23T22:58:51.087Z,2.35
2023-05-23T23:01:12.680Z,2.90
2023-05-23T23:03:39.615Z,2.63
2023-05-23T23:05:57.600Z,2.53
2023-05-23T23:08:24.751Z,2.97
2023-05-23T23:10:53.065Z,3.15
2023-05-23T23:13:10.382Z,2.72
2023-05-23T23:15:24.774Z,2.42
2023-05-23T23:17:37.130Z,2.33
2023-05-23T23:19:49.023Z,2.75
2023-05-23T23:22:10.623Z,2.28
2023-05-23T23:24:24.942Z,3.10
2023-05-23T23:26:27.748Z,3.17
2023-05-23T23:28:32.036Z,2.58
2023-05-23T23:30:33.765Z,2.65
2023-05-23T23:32:35.537Z,2.45
2023-05-23T23:34:37.080Z,2.58
2023-05-23T23:36:39.797Z,3.30
2023-05-23T23:38:41.453Z,3.17
2023-05-23T23:40:45.258Z,2.80
2023-05-23T23:42:46.712Z,2.38
2023-05-23T23:44:48.230Z,3.60
2023-05-23T23:46:49.729Z,3.38
2023-05-23T23:49:10.170Z,2.55
2023-05-23T23:51:12.896Z,3.15
2023-05-23T23:53:18.067Z,2.22
2023-05-23T23:55:22.385Z,2.80
2023-05-23T23:57:26.753Z,2.47
2023-05-23T23:59:31.095Z,2.92
